createdAt,value
2018-05-24T06:47:33.671Z,10.03
2018-05-24T06:50:02.000Z,8.60
2018-05-24T06:52:29.547Z,8.40
2018-05-24T06:54:57.093Z,8.90
2018-05-24T06:57:24.672Z,9.00
2018-05-24T06:59:52.256Z,7.90
2018-05-24T07:02:33.982Z,7.77
2018-05-24T07:05:01.449Z,6.70
2018-05-24T07:07:28.952Z,7.03
2018-05-24T07:09:56.418Z,6.70
2018-05-24T07:12:23.901Z,5.10
2018-05-24T07:14:51.390Z,4.57
2018-05-24T07:17:18.854Z,4.93
2018-05-24T07:19:46.334Z,4.73
2018-05-24T07:22:13.795Z,4.97
2018-05-24T07:24:41.347Z,4.77
2018-05-24T07:27:08.764Z,4.87
2018-05-24T07:29:36.250Z,4.80
2018-05-24T07:32:03.725Z,4.37
2018-05-24T07:34:31.263Z,5.00
2018-05-24T07:36:58.730Z,4.80
2018-05-24T07:39:26.226Z,5.00
2018-05-24T07:41:53.699Z,4.90
2018-05-24T07:44:21.188Z,5.50
2018-05-24T07:46:48.654Z,5.17
2018-05-24T07:49:16.142Z,5.20
2018-05-24T07:51:43.623Z,5.03
2018-05-24T07:54:11.114Z,5.20
2018-05-24T07:56:38.582Z,5.00
2018-05-24T07:59:06.066Z,4.70
2018-05-24T08:01:33.605Z,4.80
2018-05-24T08:04:01.044Z,4.40
2018-05-24T08:06:28.506Z,4.93
2018-05-24T08:08:55.994Z,4.50
2018-05-24T08:11:23.457Z,4.80
2018-05-24T08:13:50.951Z,6.87
2018-05-24T08:16:18.418Z,5.00
2018-05-24T08:18:45.907Z,4.77
2018-05-24T08:21:13.374Z,4.60
2018-05-24T08:23:40.866Z,5.13
2018-05-24T08:26:08.337Z,5.07
2018-05-24T08:28:35.827Z,5.60
2018-05-24T08:31:03.305Z,5.13
2018-05-24T08:33:30.773Z,5.00
2018-05-24T08:35:58.262Z,5.13
2018-05-24T08:38:25.725Z,5.60
2018-05-24T08:40:53.221Z,5.13
2018-05-24T08:43:20.706Z,5.07
2018-05-24T08:45:48.200Z,5.00
2018-05-24T08:48:15.675Z,5.63
2018-05-24T08:50:43.162Z,5.43
2018-05-24T08:53:10.635Z,5.30
2018-05-24T08:55:38.119Z,5.83
2018-05-24T08:58:05.587Z,5.47
2018-05-24T09:00:33.073Z,5.60
2018-05-24T09:03:00.538Z,5.73
2018-05-24T09:05:28.030Z,5.27
2018-05-24T09:07:55.502Z,6.13
2018-05-24T09:10:22.989Z,5.33
2018-05-24T09:12:50.474Z,5.20
2018-05-24T09:15:17.962Z,6.07
2018-05-24T09:17:45.437Z,5.77
2018-05-24T09:20:12.994Z,6.40
2018-05-24T09:22:40.405Z,6.03
2018-05-24T09:25:07.890Z,5.80
2018-05-24T09:27:35.359Z,6.07
2018-05-24T09:30:02.850Z,5.80
2018-05-24T09:32:30.315Z,5.30
2018-05-24T09:34:57.810Z,6.17
2018-05-24T09:37:25.278Z,5.93
2018-05-24T09:39:52.763Z,5.63
2018-05-24T09:42:20.236Z,5.83
2018-05-24T09:44:47.730Z,5.10
2018-05-24T09:47:15.198Z,5.60
2018-05-24T09:49:42.694Z,5.60
2018-05-24T09:52:10.165Z,6.40
2018-05-24T09:54:37.631Z,5.87
2018-05-24T09:57:05.114Z,5.80
2018-05-24T09:59:32.591Z,5.80
2018-05-24T10:02:00.077Z,5.70
2018-05-24T10:04:27.553Z,6.23
2018-05-24T10:06:55.043Z,6.10
2018-05-24T10:09:22.514Z,6.27
2018-05-24T10:11:50.008Z,6.50
2018-05-24T10:14:17.470Z,6.00
2018-05-24T10:16:44.966Z,6.97
2018-05-24T10:19:12.439Z,7.40
2018-05-24T10:21:39.925Z,7.30
2018-05-24T10:24:07.391Z,6.77
2018-05-24T10:26:34.879Z,6.47
2018-05-24T10:29:02.359Z,6.07
2018-05-24T10:31:29.850Z,6.70
2018-05-24T10:33:57.318Z,5.90
2018-05-24T10:36:24.799Z,6.90
2018-05-24T10:38:52.263Z,7.50
2018-05-24T10:41:19.762Z,7.27
2018-05-24T10:43:47.253Z,7.13
2018-05-24T10:46:14.740Z,7.40
2018-05-24T10:48:42.210Z,6.80
2018-05-24T10:51:09.752Z,7.30
2018-05-24T10:53:37.205Z,7.00
2018-05-24T10:56:04.751Z,7.47
2018-05-24T10:58:32.186Z,7.60
2018-05-24T11:00:59.673Z,6.87
2018-05-24T11:03:27.212Z,7.60
2018-05-24T11:05:54.646Z,7.30
2018-05-24T11:08:22.113Z,6.83
2018-05-24T11:10:50.009Z,7.67
2018-05-24T11:13:17.491Z,7.80
2018-05-24T11:15:44.962Z,7.60
2018-05-24T11:18:12.489Z,7.73
2018-05-24T11:20:39.958Z,7.90
2018-05-24T11:23:07.446Z,7.73
2018-05-24T11:25:34.931Z,8.00
2018-05-24T11:28:02.431Z,8.27
2018-05-24T11:30:29.894Z,7.50
2018-05-24T11:32:57.386Z,7.10
2018-05-24T11:35:24.860Z,7.33
2018-05-24T11:37:52.350Z,7.50
2018-05-24T11:40:19.822Z,6.67
2018-05-24T11:42:47.311Z,6.67
2018-05-24T11:45:14.774Z,6.80
2018-05-24T11:47:42.275Z,6.90
2018-05-24T11:50:09.742Z,7.20
2018-05-24T11:52:37.226Z,7.00
2018-05-24T11:55:04.702Z,7.47
2018-05-24T11:57:32.182Z,7.20
2018-05-24T11:59:59.797Z,7.07
2018-05-24T12:02:27.398Z,7.00
2018-05-24T12:04:55.810Z,7.30
2018-05-24T12:07:23.305Z,6.80
2018-05-24T12:09:50.820Z,6.83
2018-05-24T12:12:18.283Z,7.50
2018-05-24T12:14:45.756Z,7.23
2018-05-24T12:17:13.267Z,7.67
2018-05-24T12:19:40.733Z,6.83
2018-05-24T12:22:08.213Z,7.03
2018-05-24T12:24:35.679Z,7.53
2018-05-24T12:27:03.174Z,7.90
2018-05-24T12:29:30.646Z,8.30
2018-05-24T12:31:58.131Z,7.33
2018-05-24T12:34:25.609Z,7.27
2018-05-24T12:36:53.073Z,7.63
2018-05-24T12:39:20.569Z,7.47
2018-05-24T12:41:48.067Z,8.03
2018-05-24T12:44:15.544Z,7.80
2018-05-24T12:46:43.006Z,7.60
2018-05-24T12:49:10.500Z,8.30
2018-05-24T12:51:37.976Z,7.33
2018-05-24T12:54:05.458Z,7.30
2018-05-24T12:56:32.921Z,8.00
2018-05-24T12:59:00.417Z,8.30
2018-05-24T13:01:27.893Z,8.10
2018-05-24T13:03:55.382Z,8.20
2018-05-24T13:06:22.845Z,7.87
2018-05-24T13:08:50.327Z,8.07
2018-05-24T13:11:17.891Z,8.43
2018-05-24T13:13:45.310Z,9.07
2018-05-24T13:16:12.778Z,8.50
2018-05-24T13:18:40.269Z,7.63
2018-05-24T13:21:19.159Z,8.43
2018-05-24T13:23:46.658Z,9.57
2018-05-24T13:26:14.135Z,9.37
2018-05-24T13:28:41.627Z,7.83
2018-05-24T13:31:09.110Z,9.23
2018-05-24T13:33:36.627Z,9.10
2018-05-24T13:36:04.095Z,8.77
2018-05-24T13:38:31.606Z,8.07
2018-05-24T13:40:59.081Z,8.32
2018-05-24T13:43:26.578Z,8.00
2018-05-24T13:45:54.050Z,8.82
2018-05-24T13:48:21.551Z,8.60
2018-05-24T13:50:49.018Z,9.00
2018-05-24T13:53:16.522Z,9.20
2018-05-24T13:55:43.989Z,8.93
2018-05-24T13:58:11.487Z,8.70
2018-05-24T14:00:38.966Z,7.80
2018-05-24T14:03:06.430Z,8.73
2018-05-24T14:05:33.936Z,9.18
2018-05-24T14:08:01.411Z,8.48
2018-05-24T14:10:28.914Z,8.97
2018-05-24T14:12:56.393Z,8.63
2018-05-24T14:15:23.886Z,8.35
2018-05-24T14:17:51.365Z,8.97
2018-05-24T14:20:18.873Z,8.27
2018-05-24T14:22:46.353Z,8.55
2018-05-24T14:25:13.849Z,8.75
2018-05-24T14:27:41.320Z,8.60
2018-05-24T14:30:08.823Z,8.95
2018-05-24T14:32:36.301Z,8.60
2018-05-24T14:35:03.794Z,8.30
2018-05-24T14:37:31.280Z,9.18
2018-05-24T14:39:58.778Z,8.20
2018-05-24T14:42:26.309Z,8.80
2018-05-24T14:44:54.208Z,9.30
2018-05-24T14:47:21.694Z,9.02
2018-05-24T14:49:49.275Z,10.40
2018-05-24T14:52:16.762Z,11.20
2018-05-24T14:54:44.261Z,10.35
2018-05-24T14:57:11.743Z,11.00
2018-05-24T14:59:39.250Z,10.10
2018-05-24T15:02:06.713Z,9.90
2018-05-24T15:04:34.212Z,9.48
2018-05-24T15:07:01.703Z,9.35
2018-05-24T15:09:29.202Z,9.90
2018-05-24T15:11:56.675Z,9.98
2018-05-24T15:14:24.166Z,9.35
2018-05-24T15:16:51.647Z,9.77
2018-05-24T15:19:19.148Z,9.40
2018-05-24T15:21:46.634Z,8.98
2018-05-24T15:24:14.129Z,8.15
2018-05-24T15:26:41.630Z,10.20
2018-05-24T15:29:09.116Z,10.05
2018-05-24T15:31:36.609Z,10.98
2018-05-24T15:34:04.091Z,11.10
2018-05-24T15:36:31.590Z,10.32
2018-05-24T15:38:59.064Z,10.63
2018-05-24T15:41:26.570Z,10.73
2018-05-24T15:43:54.051Z,10.77
2018-05-24T15:46:21.543Z,8.93
2018-05-24T15:48:50.081Z,8.97
2018-05-24T15:51:17.550Z,8.50
2018-05-24T15:53:45.018Z,8.67
2018-05-24T15:56:12.511Z,8.47
2018-05-24T15:58:41.982Z,8.33
2018-05-24T16:01:09.475Z,8.67
2018-05-24T16:03:36.954Z,8.27
2018-05-24T16:06:04.453Z,8.50
2018-05-24T16:08:31.930Z,8.30
2018-05-24T16:10:59.419Z,8.53
2018-05-24T16:13:26.897Z,9.27
2018-05-24T16:15:54.391Z,8.77
2018-05-24T16:18:21.862Z,8.83
2018-05-24T16:20:49.357Z,8.90
2018-05-24T16:23:16.837Z,9.67
2018-05-24T16:25:44.332Z,9.50
2018-05-24T16:28:11.810Z,9.10
2018-05-24T16:30:39.314Z,9.60
2018-05-24T16:33:06.799Z,9.00
2018-05-24T16:35:34.291Z,9.83
2018-05-24T16:38:01.762Z,9.60
2018-05-24T16:40:29.250Z,9.80
2018-05-24T16:42:56.715Z,9.00
2018-05-24T16:45:24.223Z,9.53
2018-05-24T16:47:51.690Z,9.73
2018-05-24T16:50:19.163Z,9.77
2018-05-24T16:52:46.667Z,10.23
2018-05-24T16:55:14.135Z,9.63
2018-05-24T16:57:41.625Z,9.77
2018-05-24T17:00:09.106Z,9.40
2018-05-24T17:02:36.606Z,9.30
2018-05-24T17:05:04.096Z,9.47
2018-05-24T17:07:31.597Z,9.37
2018-05-24T17:09:59.071Z,8.70
2018-05-24T17:12:26.589Z,8.83
2018-05-24T17:14:54.055Z,9.47
2018-05-24T17:17:21.538Z,8.80
2018-05-24T17:19:49.026Z,10.23
2018-05-24T17:22:16.527Z,10.43
2018-05-24T17:24:44.011Z,9.97
2018-05-24T17:27:11.507Z,10.87
2018-05-24T17:29:38.983Z,10.73
2018-05-24T17:32:06.481Z,11.77
2018-05-24T17:34:33.958Z,11.97
2018-05-24T17:37:01.451Z,11.57
2018-05-24T17:39:28.943Z,10.93
2018-05-24T17:41:56.449Z,11.27
2018-05-24T17:44:23.935Z,10.73
2018-05-24T17:46:51.437Z,10.27
2018-05-24T17:49:18.916Z,10.73
2018-05-24T17:51:46.422Z,11.50
2018-05-24T17:54:13.905Z,12.00
2018-05-24T17:56:41.406Z,12.10
2018-05-24T17:59:08.874Z,13.13
2018-05-24T18:01:36.378Z,11.60
2018-05-24T18:04:03.862Z,11.70
2018-05-24T18:06:31.372Z,10.97
2018-05-24T18:08:58.849Z,10.60
2018-05-24T18:11:26.336Z,9.37
2018-05-24T18:13:53.855Z,9.70
2018-05-24T18:16:21.320Z,9.50
2018-05-24T18:18:48.811Z,9.23
2018-05-24T18:21:16.310Z,8.77
2018-05-24T18:23:43.798Z,8.80
2018-05-24T18:26:11.278Z,8.50
2018-05-24T18:28:38.886Z,8.90
2018-05-24T18:31:06.352Z,8.87
2018-05-24T18:33:33.853Z,9.13
2018-05-24T18:36:01.376Z,8.70
2018-05-24T18:38:28.836Z,9.00
2018-05-24T18:40:56.320Z,9.10
2018-05-24T18:43:23.813Z,8.80
2018-05-24T18:45:51.303Z,9.00
2018-05-24T18:48:18.797Z,8.63
2018-05-24T18:50:46.272Z,9.27
2018-05-24T18:53:13.765Z,8.57
2018-05-24T18:55:41.243Z,9.30
2018-05-24T18:58:08.727Z,9.10
2018-05-24T19:00:36.193Z,8.63
2018-05-24T19:03:03.686Z,8.90
2018-05-24T19:05:31.161Z,9.37
2018-05-24T19:07:58.655Z,8.93
2018-05-24T19:10:26.125Z,8.10
2018-05-24T19:12:53.626Z,7.80
2018-05-24T19:15:21.087Z,8.40
2018-05-24T19:17:48.579Z,7.80
2018-05-24T19:20:16.048Z,8.53
2018-05-24T19:22:43.557Z,8.80
2018-05-24T19:25:11.040Z,8.40
2018-05-24T19:27:38.559Z,8.93
2018-05-24T19:30:06.029Z,9.10
2018-05-24T19:32:33.506Z,8.37
2018-05-24T19:35:01.006Z,8.97
2018-05-24T19:37:31.541Z,8.77
2018-05-24T19:39:59.022Z,8.13
2018-05-24T19:42:26.488Z,8.03
2018-05-24T19:44:53.987Z,8.30
2018-05-24T19:47:21.449Z,8.00
2018-05-24T19:49:49.736Z,7.30
2018-05-24T19:52:17.203Z,8.00
2018-05-24T19:54:44.690Z,7.70
2018-05-24T19:57:12.165Z,7.03
2018-05-24T19:59:39.658Z,7.30
2018-05-24T20:02:07.122Z,7.13
2018-05-24T20:04:34.618Z,6.90
2018-05-24T20:07:02.086Z,6.67
2018-05-24T20:09:29.570Z,6.90
2018-05-24T20:11:57.038Z,6.33
2018-05-24T20:14:24.534Z,6.50
2018-05-24T20:16:52.003Z,6.80
2018-05-24T20:19:19.490Z,6.43
2018-05-24T20:21:46.954Z,6.90
2018-05-24T20:24:14.438Z,6.50
2018-05-24T20:26:41.906Z,6.80
2018-05-24T20:29:09.385Z,6.63
2018-05-24T20:31:36.857Z,6.83
2018-05-24T20:34:05.330Z,6.83
2018-05-24T20:36:32.808Z,7.23
2018-05-24T20:39:00.372Z,6.83
2018-05-24T20:41:27.792Z,6.03
2018-05-24T20:43:55.310Z,6.13
2018-05-24T20:46:22.784Z,5.87
2018-05-24T20:48:50.241Z,5.93
2018-05-24T20:51:17.733Z,5.97
2018-05-24T20:53:45.197Z,5.57
2018-05-24T20:56:12.720Z,6.20
2018-05-24T20:58:40.182Z,5.60
2018-05-24T21:01:07.673Z,6.23
2018-05-24T21:03:35.146Z,5.93
2018-05-24T21:06:02.629Z,6.13
2018-05-24T21:08:30.098Z,6.70
2018-05-24T21:10:57.616Z,5.83
2018-05-24T21:13:25.086Z,6.30
2018-05-24T21:15:52.585Z,6.57
2018-05-24T21:18:20.049Z,5.97
2018-05-24T21:20:47.586Z,7.23
2018-05-24T21:23:15.068Z,6.53
2018-05-24T21:25:42.563Z,6.13
2018-05-24T21:28:10.031Z,6.80
2018-05-24T21:30:37.513Z,6.63
2018-05-24T21:33:04.982Z,6.17
2018-05-24T21:35:32.454Z,6.73
2018-05-24T21:37:59.971Z,6.83
2018-05-24T21:40:28.566Z,6.97
2018-05-24T21:42:56.096Z,6.53
2018-05-24T21:45:23.579Z,7.00
2018-05-24T21:47:51.065Z,6.97
2018-05-24T21:50:18.541Z,7.03
2018-05-24T21:52:46.878Z,7.60
2018-05-24T21:55:14.351Z,6.87
2018-05-24T21:57:41.835Z,7.03
2018-05-24T22:00:09.289Z,7.23
2018-05-24T22:02:36.785Z,7.13
2018-05-24T22:05:04.250Z,7.70
2018-05-24T22:07:31.768Z,7.60
2018-05-24T22:09:59.225Z,7.90
2018-05-24T22:12:26.726Z,7.93
2018-05-24T22:14:54.197Z,8.03
2018-05-24T22:17:21.661Z,8.73
2018-05-24T22:19:49.146Z,8.67
2018-05-24T22:22:16.616Z,8.80
2018-05-24T22:24:44.105Z,9.90
2018-05-24T22:27:11.591Z,9.60
2018-05-24T22:29:39.081Z,10.07
2018-05-24T22:32:06.554Z,10.23
2018-05-24T22:34:34.059Z,11.00
2018-05-24T22:37:01.545Z,11.20
2018-05-24T22:39:29.050Z,11.47
2018-05-24T22:41:56.535Z,10.70
2018-05-24T22:44:24.025Z,11.17
2018-05-24T22:46:51.613Z,11.77
2018-05-24T22:49:19.115Z,11.57
2018-05-24T22:51:46.600Z,11.53
2018-05-24T22:54:14.119Z,12.07
2018-05-24T22:56:41.630Z,11.30
2018-05-24T22:59:09.094Z,12.13
2018-05-24T23:01:36.596Z,12.63
2018-05-24T23:04:04.067Z,12.13
2018-05-24T23:06:31.562Z,11.63
2018-05-24T23:08:59.063Z,12.07
2018-05-24T23:11:26.557Z,11.03
2018-05-24T23:13:54.034Z,11.17
2018-05-24T23:16:21.530Z,9.87
2018-05-24T23:18:49.013Z,10.27
2018-05-24T23:21:16.516Z,10.37
2018-05-24T23:23:44.005Z,12.00
2018-05-24T23:26:11.502Z,12.60
2018-05-24T23:28:38.989Z,12.23
2018-05-24T23:31:06.506Z,12.30
2018-05-24T23:33:33.974Z,12.60
2018-05-24T23:36:01.455Z,12.80
2018-05-24T23:38:28.953Z,13.27
2018-05-24T23:40:56.434Z,12.33
2018-05-24T23:43:23.928Z,12.73
2018-05-24T23:45:51.417Z,14.23
2018-05-24T23:48:18.910Z,13.80
2018-05-24T23:50:46.393Z,13.20
2018-05-24T23:53:13.890Z,12.87
2018-05-24T23:55:41.370Z,13.90
2018-05-24T23:58:08.866Z,14.93
